Time;durP1;ratioP1;P1;durP2;ratioP2;P2;SDS_P1;SDS_P2;PMS_P1;PMS_P2;Temp;Humidity;BMP_temperature;BMP_pressure;BME280_temperature;BME280_humidity;BME280_pressure;Samples;Min_cycle;Max_cycle;Signal;HPM_P1;HPM_P2
2023/07/10 00:08:34;;;;;;;96.47;2.73;;;27.50;26.10;;;;;;4967024;28;20445;-73
2023/07/10 00:11:00;;;;;;;96.50;2.67;;;27.40;25.40;;;;;;4971355;28;20430;-73
2023/07/10 00:13:26;;;;;;;99.20;3.17;;;27.60;25.50;;;;;;4966506;28;20265;-73
2023/07/10 00:15:53;;;;;;;97.87;3.13;;;27.50;25.20;;;;;;4962294;28;20512;-73
2023/07/10 00:18:21;;;;;;;98.83;2.80;;;27.30;26.30;;;;;;4965550;28;20178;-73
2023/07/10 00:20:47;;;;;;;96.43;2.70;;;27.40;26.00;;;;;;4967722;28;21123;-73
2023/07/10 00:23:14;;;;;;;96.57;2.67;;;27.40;26.80;;;;;;4967418;28;20477;-73
2023/07/10 00:25:40;;;;;;;96.80;2.90;;;27.70;25.00;;;;;;4963099;28;20426;-73
2023/07/10 00:31:28;;;;;;;96.37;2.50;;;27.20;26.30;;;;;;4966068;28;20464;-76
2023/07/10 00:33:54;;;;;;;96.53;2.57;;;27.00;27.00;;;;;;4961938;28;20434;-74
2023/07/10 00:36:35;;;;;;;96.53;2.43;;;27.00;27.10;;;;;;4966888;28;20274;-73
2023/07/10 00:39:12;;;;;;;96.60;2.63;;;27.30;26.00;;;;;;4970923;28;20205;-73
2023/07/10 00:41:40;;;;;;;96.90;2.60;;;27.10;26.80;;;;;;4969708;28;20480;-73
2023/07/10 00:44:06;;;;;;;99.13;3.27;;;27.00;27.20;;;;;;4961091;28;20440;-73
2023/07/10 00:46:37;;;;;;;97.37;3.10;;;26.90;27.10;;;;;;4970530;28;20496;-73
2023/07/10 00:49:08;;;;;;;98.07;3.20;;;27.00;26.50;;;;;;4970462;28;20449;-73
2023/07/10 00:51:54;;;;;;;97.60;3.00;;;26.80;26.90;;;;;;4967240;28;20425;-74
2023/07/10 00:54:44;;;;;;;97.07;2.80;;;26.90;26.70;;;;;;4965668;28;20441;-73
2023/07/10 00:57:15;;;;;;;97.17;2.70;;;26.70;26.60;;;;;;4969807;28;20901;-73
2023/07/10 00:59:42;;;;;;;97.70;2.60;;;26.70;27.60;;;;;;4968091;28;20446;-73
2023/07/10 01:02:07;;;;;;;97.07;2.40;;;26.70;26.80;;;;;;4970084;28;20871;-73
2023/07/10 01:04:39;;;;;;;97.03;2.30;;;26.60;27.40;;;;;;4968310;28;20505;-73
2023/07/10 01:07:12;;;;;;;97.27;2.63;;;26.50;27.80;;;;;;4969613;28;20189;-73
2023/07/10 01:09:42;;;;;;;97.10;2.47;;;26.40;27.40;;;;;;4987647;28;20445;-73
2023/07/10 01:12:08;;;;;;;97.47;2.67;;;26.50;27.80;;;;;;4972328;28;20417;-73
2023/07/10 01:14:35;;;;;;;97.67;2.70;;;26.50;27.70;;;;;;4971192;28;20430;-73
2023/07/10 01:17:05;;;;;;;97.60;3.00;;;26.70;26.40;;;;;;4970652;28;20941;-73
2023/07/10 01:19:32;;;;;;;97.30;2.70;;;26.70;27.70;;;;;;4965541;28;20497;-73
2023/07/10 01:21:57;;;;;;;98.17;3.07;;;26.70;26.90;;;;;;4969185;28;20457;-73
2023/07/10 01:24:23;;;;;;;97.00;2.40;;;26.80;26.80;;;;;;4972286;28;20463;-73
2023/07/10 01:26:49;;;;;;;97.47;2.57;;;26.80;27.70;;;;;;4972130;28;20221;-74
2023/07/10 01:29:28;;;;;;;97.30;2.80;;;26.90;26.90;;;;;;4973211;28;20452;-73
2023/07/10 01:31:55;;;;;;;98.30;3.00;;;26.80;27.70;;;;;;4976641;28;20170;-73
2023/07/10 01:34:25;;;;;;;97.40;2.53;;;26.60;27.80;;;;;;4972034;28;20516;-73
2023/07/10 01:36:52;;;;;;;97.77;2.73;;;26.40;27.60;;;;;;4968634;28;20520;-73
2023/07/10 01:39:38;;;;;;;97.27;2.60;;;26.40;28.90;;;;;;4976030;28;20434;-73
2023/07/10 01:42:04;;;;;;;97.53;2.53;;;26.40;28.40;;;;;;4974641;28;20425;-73
2023/07/10 01:44:34;;;;;;;98.20;2.83;;;26.40;28.60;;;;;;4976116;28;20404;-74
2023/07/10 01:47:01;;;;;;;97.97;2.90;;;26.30;28.20;;;;;;4976650;28;20469;-74
2023/07/10 01:49:34;;;;;;;98.63;2.90;;;26.00;27.50;;;;;;4976099;28;20896;-73
2023/07/10 01:52:02;;;;;;;99.20;2.60;;;25.40;28.90;;;;;;4972817;28;20953;-73
2023/07/10 01:54:28;;;;;;;99.00;2.97;;;25.20;29.30;;;;;;4974183;28;20421;-73
2023/07/10 01:56:54;;;;;;;97.67;2.70;;;25.50;29.00;;;;;;4975731;28;20464;-73
2023/07/10 01:59:20;;;;;;;98.57;2.97;;;25.90;29.10;;;;;;4989706;28;20434;-73
2023/07/10 02:01:46;;;;;;;97.53;2.67;;;26.10;29.10;;;;;;4970014;28;20218;-73
2023/07/10 02:04:11;;;;;;;99.30;3.50;;;26.30;28.30;;;;;;4972518;28;20213;-74
2023/07/10 02:06:39;;;;;;;100.20;2.93;;;26.10;28.20;;;;;;4975793;28;20449;-73
2023/07/10 02:09:05;;;;;;;97.67;2.57;;;26.10;28.30;;;;;;4965708;28;20643;-73
2023/07/10 02:11:30;;;;;;;98.67;2.80;;;26.10;28.90;;;;;;4975688;28;20418;-73
2023/07/10 02:13:56;;;;;;;98.17;2.70;;;26.20;28.70;;;;;;4973110;28;20232;-74
2023/07/10 02:16:22;;;;;;;97.93;2.60;;;26.00;28.20;;;;;;4970850;28;20244;-73
2023/07/10 02:18:48;;;;;;;97.27;2.40;;;25.80;28.00;;;;;;4971617;28;20213;-73
2023/07/10 02:21:14;;;;;;;99.07;3.07;;;25.70;28.10;;;;;;4975537;28;20268;-73
2023/07/10 02:23:40;;;;;;;97.33;2.50;;;25.10;29.20;;;;;;4969146;28;20926;-73
2023/07/10 02:26:06;;;;;;;97.47;2.43;;;24.70;30.00;;;;;;4974917;28;20174;-73
2023/07/10 02:28:31;;;;;;;97.73;2.60;;;24.40;30.60;;;;;;4975284;28;20897;-73
2023/07/10 02:30:57;;;;;;;98.03;2.90;;;24.20;30.70;;;;;;4975250;28;20410;-73
2023/07/10 02:33:23;;;;;;;97.43;2.50;;;24.10;30.80;;;;;;4975267;28;20190;-73
2023/07/10 02:35:49;;;;;;;98.40;2.90;;;24.00;31.50;;;;;;4974921;28;20733;-73
2023/07/10 02:38:14;;;;;;;97.77;2.80;;;24.20;31.20;;;;;;4975208;28;20181;-73
2023/07/10 02:40:43;;;;;;;98.67;3.10;;;24.60;30.00;;;;;;4974012;28;20461;-73
2023/07/10 02:43:09;;;;;;;97.47;2.60;;;25.20;29.80;;;;;;4974995;28;20175;-73
2023/07/10 02:45:35;;;;;;;97.50;2.67;;;25.80;27.70;;;;;;4974868;28;20461;-73
2023/07/10 02:48:01;;;;;;;97.47;2.60;;;26.30;26.90;;;;;;4974959;28;20406;-73
2023/07/10 02:50:26;;;;;;;100.67;2.80;;;26.30;27.70;;;;;;4975028;28;20437;-73
2023/07/10 02:52:52;;;;;;;97.37;2.40;;;26.40;27.50;;;;;;4972334;28;20269;-73
2023/07/10 02:55:18;;;;;;;97.57;2.70;;;26.50;26.80;;;;;;4974555;28;20202;-73
2023/07/10 02:57:43;;;;;;;97.37;2.50;;;26.60;27.00;;;;;;4974508;28;20182;-75
2023/07/10 03:00:09;;;;;;;98.07;2.97;;;26.30;27.10;;;;;;4964913;28;20248;-73
2023/07/10 03:02:35;;;;;;;97.20;2.50;;;26.30;27.50;;;;;;4984662;28;20179;-73
2023/07/10 03:05:01;;;;;;;97.57;2.80;;;26.30;27.50;;;;;;4972878;28;20442;-73
2023/07/10 03:07:27;;;;;;;98.50;2.90;;;26.30;28.70;;;;;;4968745;28;20678;-73
2023/07/10 03:09:52;;;;;;;99.10;3.07;;;26.30;28.10;;;;;;4971501;28;20433;-73
2023/07/10 03:12:21;;;;;;;97.27;2.40;;;26.30;27.90;;;;;;4970051;28;20696;-73
2023/07/10 03:14:47;;;;;;;97.77;3.03;;;26.50;27.50;;;;;;4973171;28;20237;-73
2023/07/10 03:17:12;;;;;;;97.67;2.63;;;26.50;27.80;;;;;;4974677;28;20421;-73
2023/07/10 03:19:38;;;;;;;97.87;2.80;;;26.60;26.90;;;;;;4972930;28;20454;-73
2023/07/10 03:22:04;;;;;;;97.30;2.37;;;26.60;27.70;;;;;;4965515;28;20217;-73
2023/07/10 03:24:29;;;;;;;97.90;2.80;;;26.60;27.10;;;;;;4967086;28;20529;-73
2023/07/10 03:26:55;;;;;;;97.90;2.93;;;26.60;27.30;;;;;;4971056;28;20672;-73
2023/07/10 03:29:20;;;;;;;98.37;2.77;;;26.60;28.10;;;;;;4973355;28;20580;-73
2023/07/10 03:31:46;;;;;;;97.77;2.73;;;26.60;28.60;;;;;;4970712;28;20185;-73
2023/07/10 03:34:13;;;;;;;97.47;2.40;;;26.60;27.70;;;;;;4971252;28;20193;-74
2023/07/10 03:36:39;;;;;;;97.60;2.50;;;26.60;27.90;;;;;;4973969;28;20317;-74
2023/07/10 03:39:05;;;;;;;97.30;2.40;;;26.60;27.70;;;;;;4971847;28;20493;-73
2023/07/10 03:41:32;;;;;;;98.17;2.70;;;26.60;27.30;;;;;;4970140;28;20465;-73
2023/07/10 03:43:58;;;;;;;97.93;2.87;;;26.60;27.30;;;;;;4968329;28;20174;-73
2023/07/10 03:46:24;;;;;;;98.17;2.70;;;26.60;27.10;;;;;;4971019;28;20480;-73
2023/07/10 03:48:49;;;;;;;97.40;2.73;;;26.80;27.00;;;;;;4968823;28;20248;-74
2023/07/10 03:51:16;;;;;;;97.70;2.67;;;26.80;26.50;;;;;;4970015;28;20831;-73
2023/07/10 03:53:42;;;;;;;98.77;2.63;;;26.80;26.90;;;;;;4959266;28;20705;-73
2023/07/10 03:56:08;;;;;;;98.40;2.90;;;26.70;27.50;;;;;;4963498;28;20495;-74
2023/07/10 03:58:37;;;;;;;97.77;2.67;;;26.70;27.90;;;;;;4971238;28;20457;-73
2023/07/10 04:01:03;;;;;;;98.57;3.00;;;26.70;27.30;;;;;;4969340;28;20907;-73
2023/07/10 04:03:33;;;;;;;97.47;2.80;;;26.80;26.90;;;;;;4969685;28;20479;-74
2023/07/10 04:06:00;;;;;;;97.83;2.73;;;27.00;26.70;;;;;;4967258;28;20190;-73
2023/07/10 04:08:31;;;;;;;97.27;2.50;;;26.80;27.60;;;;;;4967041;28;20417;-73
2023/07/10 04:11:00;;;;;;;98.00;2.60;;;26.70;28.20;;;;;;4968433;28;20469;-74
2023/07/10 04:13:26;;;;;;;98.83;2.83;;;26.80;26.60;;;;;;4966544;28;20476;-73
2023/07/10 04:16:20;;;;;;;97.80;2.63;;;26.80;28.50;;;;;;4970431;28;20844;-74
2023/07/10 04:18:48;;;;;;;97.50;2.57;;;26.80;28.20;;;;;;4967134;28;20474;-73
2023/07/10 04:21:24;;;;;;;97.00;2.27;;;26.90;26.40;;;;;;4969085;28;20829;-73
2023/07/10 04:23:50;;;;;;;97.27;2.50;;;29.40;29.00;;;;;;4972988;28;20405;-74
2023/07/10 04:26:18;;;;;;;97.67;2.70;;;26.80;29.20;;;;;;4953812;28;20411;-74
2023/07/10 04:28:46;;;;;;;97.80;2.70;;;26.80;28.90;;;;;;4953763;29;20410;-74
2023/07/10 04:31:11;;;;;;;98.03;2.80;;;26.80;29.80;;;;;;4964468;28;20488;-74
2023/07/10 04:33:37;;;;;;;97.90;2.50;;;26.90;30.30;;;;;;4973052;28;20410;-73
2023/07/10 04:36:02;;;;;;;97.57;2.47;;;26.70;30.90;;;;;;4987741;28;20540;-74
2023/07/10 04:38:28;;;;;;;97.43;2.47;;;26.60;31.60;;;;;;4973024;28;20248;-73
2023/07/10 04:41:00;;;;;;;98.80;3.20;;;26.80;30.10;;;;;;4973085;28;20332;-74
2023/07/10 04:43:28;;;;;;;98.37;2.70;;;26.70;30.50;;;;;;4973026;28;20414;-73
2023/07/10 04:45:55;;;;;;;98.47;2.70;;;26.70;30.50;;;;;;4972397;28;20467;-74
2023/07/10 04:48:22;;;;;;;98.00;2.70;;;26.60;30.60;;;;;;4973052;28;20929;-73
2023/07/10 04:50:50;;;;;;;98.47;2.77;;;26.60;30.50;;;;;;4972671;28;20442;-73
2023/07/10 04:53:16;;;;;;;98.27;2.60;;;27.00;30.20;;;;;;4968739;28;20425;-74
2023/07/10 04:55:42;;;;;;;98.70;2.80;;;26.70;30.70;;;;;;4971184;28;20945;-74
2023/07/10 04:58:08;;;;;;;99.87;2.83;;;26.70;28.60;;;;;;4972382;28;20940;-74
2023/07/10 05:00:34;;;;;;;99.30;3.03;;;26.70;28.30;;;;;;4971312;28;20469;-74
2023/07/10 05:03:00;;;;;;;101.67;2.77;;;26.80;28.10;;;;;;4972781;28;20530;-73
2023/07/10 05:05:25;;;;;;;98.50;2.57;;;26.90;28.60;;;;;;4971595;28;20624;-74
2023/07/10 05:07:51;;;;;;;98.27;2.60;;;26.90;28.00;;;;;;4973388;28;20905;-74
2023/07/10 05:10:17;;;;;;;98.10;2.50;;;27.10;29.60;;;;;;4972720;28;20310;-74
2023/07/10 05:12:42;;;;;;;99.63;2.90;;;27.00;28.50;;;;;;4972706;28;20182;-71
2023/07/10 05:15:08;;;;;;;99.40;2.97;;;27.10;28.20;;;;;;4972103;28;20268;-73
2023/07/10 05:17:34;;;;;;;98.40;2.77;;;27.00;28.50;;;;;;4971173;28;20182;-74
2023/07/10 05:19:59;;;;;;;97.87;2.50;;;27.10;28.00;;;;;;4972167;28;20957;-73
2023/07/10 05:22:25;;;;;;;97.83;2.30;;;27.20;28.00;;;;;;4972417;28;20178;-74
2023/07/10 05:24:51;;;;;;;98.37;2.77;;;27.30;28.10;;;;;;4966975;28;20254;-74
2023/07/10 05:27:17;;;;;;;98.40;2.60;;;27.00;28.70;;;;;;4972485;28;20285;-74
2023/07/10 05:29:42;;;;;;;98.20;2.70;;;27.20;29.10;;;;;;4972200;28;21000;-72
2023/07/10 05:32:08;;;;;;;98.10;2.83;;;27.10;29.80;;;;;;4972370;28;20274;-73
2023/07/10 05:34:34;;;;;;;101.50;2.70;;;26.90;30.60;;;;;;4972250;28;20182;-73
2023/07/10 05:37:00;;;;;;;98.17;2.80;;;26.90;30.30;;;;;;4972294;28;20441;-73
2023/07/10 05:39:27;;;;;;;99.00;2.40;;;26.90;30.60;;;;;;4972443;28;20198;-73
2023/07/10 05:41:53;;;;;;;98.10;2.57;;;26.90;31.30;;;;;;4972274;28;20209;-73
2023/07/10 05:44:18;;;;;;;98.50;2.77;;;27.00;31.60;;;;;;4970719;28;20956;-73
2023/07/10 05:46:44;;;;;;;99.97;2.73;;;27.20;31.40;;;;;;4971799;28;20628;-73
2023/07/10 05:49:09;;;;;;;98.27;2.73;;;27.00;31.70;;;;;;4971888;28;20230;-73
2023/07/10 05:51:35;;;;;;;98.57;2.80;;;26.80;33.00;;;;;;4972414;28;20174;-73
2023/07/10 05:54:01;;;;;;;98.47;2.93;;;26.90;32.40;;;;;;4971904;28;20261;-74
2023/07/10 05:56:27;;;;;;;98.40;2.70;;;27.00;31.00;;;;;;4972052;28;20174;-74
2023/07/10 05:58:53;;;;;;;105.70;3.23;;;27.20;30.10;;;;;;4970181;28;20972;-73
2023/07/10 06:01:18;;;;;;;98.30;2.70;;;27.40;29.90;;;;;;4968631;28;20264;-74
2023/07/10 06:03:44;;;;;;;98.87;2.80;;;27.00;30.70;;;;;;4966832;28;20191;-73
2023/07/10 06:06:10;;;;;;;100.07;3.07;;;26.00;33.70;;;;;;4970090;28;20277;-73
2023/07/10 06:08:37;;;;;;;99.27;2.80;;;25.20;36.50;;;;;;4971088;28;20484;-73
2023/07/10 06:11:03;;;;;;;99.50;2.90;;;24.90;38.50;;;;;;4970768;28;20638;-73
2023/07/10 06:13:29;;;;;;;99.20;2.93;;;25.70;37.10;;;;;;4971635;28;20820;-73
2023/07/10 06:15:56;;;;;;;98.40;2.70;;;26.40;36.40;;;;;;4972132;28;20468;-73
2023/07/10 06:18:23;;;;;;;98.77;2.70;;;26.70;35.30;;;;;;4961079;28;20306;-72
2023/07/10 06:20:57;;;;;;;98.87;2.80;;;26.80;34.70;;;;;;4975071;28;20472;-74
2023/07/10 06:23:23;;;;;;;98.63;2.70;;;26.40;33.70;;;;;;4968492;28;20432;-73
2023/07/10 06:25:50;;;;;;;101.60;3.27;;;26.40;33.00;;;;;;4975087;28;20409;-73
2023/07/10 06:28:15;;;;;;;98.77;2.80;;;26.60;33.90;;;;;;4975406;28;20410;-73
2023/07/10 06:30:42;;;;;;;98.97;2.70;;;27.10;33.60;;;;;;4975241;28;20436;-73
2023/07/10 06:33:09;;;;;;;98.87;2.80;;;27.30;33.10;;;;;;4975262;28;20217;-73
2023/07/10 06:35:34;;;;;;;99.60;2.90;;;27.40;31.20;;;;;;4975014;28;20418;-73
2023/07/10 06:38:00;;;;;;;98.50;2.60;;;27.70;31.20;;;;;;4975114;28;20422;-72
2023/07/10 06:40:26;;;;;;;99.90;3.30;;;27.70;31.20;;;;;;4975138;28;20210;-72
2023/07/10 06:42:51;;;;;;;99.33;2.90;;;27.90;32.10;;;;;;4975371;28;20525;-72
2023/07/10 06:45:17;;;;;;;99.73;2.87;;;27.70;32.60;;;;;;4974947;28;20698;-73
2023/07/10 06:47:45;;;;;;;100.10;3.30;;;27.70;32.90;;;;;;4975200;28;20517;-73
2023/07/10 06:50:13;;;;;;;98.57;2.70;;;27.60;32.90;;;;;;4974999;28;20524;-74
2023/07/10 06:52:41;;;;;;;99.30;2.83;;;27.50;33.70;;;;;;4974851;28;20445;-73
2023/07/10 06:55:10;;;;;;;102.37;3.27;;;27.40;32.80;;;;;;4974689;28;20471;-73
2023/07/10 06:57:36;;;;;;;100.27;2.83;;;27.30;33.40;;;;;;4975087;28;20977;-73
2023/07/10 07:00:03;;;;;;;99.00;2.67;;;27.50;33.30;;;;;;4974534;28;20466;-73
2023/07/10 07:02:28;;;;;;;98.57;2.43;;;27.80;34.20;;;;;;4974326;28;20189;-73
2023/07/10 07:04:54;;;;;;;98.27;2.23;;;28.00;34.50;;;;;;4974389;28;20410;-73
2023/07/10 07:07:20;;;;;;;99.87;3.07;;;28.10;34.20;;;;;;4974866;28;20704;-73
2023/07/10 07:09:45;;;;;;;99.00;2.63;;;28.30;32.70;;;;;;4974609;28;20186;-74
2023/07/10 07:12:11;;;;;;;99.60;3.10;;;28.70;30.70;;;;;;4973288;28;20189;-73
2023/07/10 07:14:36;;;;;;;98.63;2.70;;;28.70;31.10;;;;;;4974457;28;20181;-73
2023/07/10 07:17:04;;;;;;;100.97;2.57;;;28.90;30.80;;;;;;4973953;28;20225;-73
2023/07/10 07:19:29;;;;;;;99.47;2.70;;;28.90;30.10;;;;;;4974444;28;20209;-73
2023/07/10 07:21:55;;;;;;;98.90;2.93;;;29.00;30.10;;;;;;4974327;28;20803;-73
2023/07/10 07:24:20;;;;;;;99.00;2.70;;;29.00;30.50;;;;;;4973270;28;20178;-73
2023/07/10 07:26:46;;;;;;;99.57;2.90;;;29.10;29.90;;;;;;4973697;28;20714;-73
2023/07/10 07:29:12;;;;;;;100.10;3.03;;;29.30;29.60;;;;;;4973483;28;20589;-73
2023/07/10 07:31:40;;;;;;;99.30;2.90;;;29.30;29.20;;;;;;4976106;28;20182;-73
2023/07/10 07:34:06;;;;;;;98.80;2.60;;;29.20;29.40;;;;;;4973358;28;20190;-74
2023/07/10 07:36:32;;;;;;;99.70;2.97;;;29.40;28.70;;;;;;4973423;28;20432;-73
2023/07/10 07:38:57;;;;;;;99.10;2.87;;;29.60;28.70;;;;;;4974048;28;20611;-73
2023/07/10 07:41:23;;;;;;;99.27;2.70;;;29.70;28.90;;;;;;4974260;28;20190;-73
2023/07/10 07:43:48;;;;;;;99.27;2.83;;;29.80;28.30;;;;;;4974363;28;20185;-75
2023/07/10 07:46:14;;;;;;;98.40;2.80;;;29.70;28.30;;;;;;4972722;28;20183;-73
2023/07/10 07:48:40;;;;;;;99.07;2.70;;;29.70;27.90;;;;;;4971023;28;20182;-73
2023/07/10 07:51:08;;;;;;;98.13;2.40;;;29.30;29.10;;;;;;4973740;28;20623;-73
2023/07/10 07:53:39;;;;;;;98.50;2.73;;;29.40;29.10;;;;;;4973935;28;20174;-73
2023/07/10 07:56:05;;;;;;;98.70;2.97;;;29.00;29.90;;;;;;4973680;28;20928;-73
2023/07/10 07:58:31;;;;;;;98.30;2.77;;;29.10;29.60;;;;;;4973904;28;20406;-73
2023/07/10 08:00:56;;;;;;;98.47;2.43;;;29.20;29.30;;;;;;4971568;28;20203;-74
2023/07/10 08:03:23;;;;;;;97.77;2.50;;;28.80;30.70;;;;;;4973883;28;20674;-73
2023/07/10 08:05:48;;;;;;;100.90;2.77;;;28.70;31.40;;;;;;4973323;28;20677;-74
2023/07/10 08:08:14;;;;;;;97.57;2.40;;;28.40;31.70;;;;;;4973637;28;20422;-73
2023/07/10 08:10:47;;;;;;;98.00;2.77;;;28.00;31.60;;;;;;4973465;28;20222;-73
2023/07/10 08:13:14;;;;;;;98.10;2.53;;;28.00;32.10;;;;;;4973638;28;20642;-74
2023/07/10 08:15:41;;;;;;;98.10;2.90;;;28.40;31.90;;;;;;4973229;28;20792;-73
2023/07/10 08:18:07;;;;;;;97.90;2.60;;;28.70;30.50;;;;;;4973348;28;20435;-74
2023/07/10 08:20:33;;;;;;;97.30;2.30;;;28.60;30.80;;;;;;4973217;28;20473;-73
2023/07/10 08:22:59;;;;;;;97.60;2.47;;;28.30;31.60;;;;;;4972202;28;20183;-73
2023/07/10 08:25:25;;;;;;;98.07;2.77;;;28.70;31.30;;;;;;4971849;28;20422;-73
2023/07/10 08:27:50;;;;;;;97.50;2.43;;;28.60;31.10;;;;;;4972701;28;20906;-73
2023/07/10 08:30:16;;;;;;;97.27;2.57;;;28.20;31.60;;;;;;4973238;28;20476;-73
2023/07/10 08:32:42;;;;;;;97.23;2.60;;;28.60;31.80;;;;;;4973236;28;20175;-74
2023/07/10 08:35:08;;;;;;;96.47;2.20;;;28.60;29.80;;;;;;4972910;28;20429;-73
2023/07/10 08:37:36;;;;;;;97.07;2.40;;;28.30;31.60;;;;;;4972018;28;20754;-74
2023/07/10 08:40:04;;;;;;;96.73;2.43;;;28.30;30.90;;;;;;4971350;28;20861;-75
2023/07/10 08:42:31;;;;;;;97.50;3.00;;;28.70;30.70;;;;;;4970372;28;20418;-75
2023/07/10 08:45:00;;;;;;;97.17;2.47;;;28.90;30.90;;;;;;4971479;28;20438;-75
2023/07/10 08:47:39;;;;;;;97.60;2.80;;;29.30;29.20;;;;;;4972661;28;20418;-74
2023/07/10 08:50:28;;;;;;;97.00;2.70;;;28.80;29.60;;;;;;4972990;28;20433;-73
2023/07/10 08:53:04;;;;;;;96.77;2.40;;;28.80;30.00;;;;;;4972660;28;20417;-74
2023/07/10 08:55:44;;;;;;;99.10;2.87;;;29.50;29.40;;;;;;4953672;28;20409;-73
2023/07/10 08:58:36;;;;;;;96.67;2.70;;;29.70;28.00;;;;;;4953388;29;20391;-74
2023/07/10 09:01:09;;;;;;;96.77;2.50;;;30.10;27.90;;;;;;4953541;28;20566;-74
2023/07/10 09:03:38;;;;;;;96.87;2.60;;;29.70;28.90;;;;;;4969247;28;20977;-74
2023/07/10 09:06:04;;;;;;;96.40;2.40;;;29.60;28.40;;;;;;4972564;28;20421;-73
2023/07/10 09:08:32;;;;;;;96.77;2.80;;;29.60;28.40;;;;;;4972432;28;20922;-73
2023/07/10 09:11:02;;;;;;;96.27;2.47;;;30.20;27.00;;;;;;4972695;28;20898;-73
2023/07/10 09:13:39;;;;;;;96.37;2.60;;;30.50;27.10;;;;;;4971799;28;20414;-73
2023/07/10 09:16:15;;;;;;;97.17;2.90;;;31.00;26.80;;;;;;4971096;28;20431;-74
2023/07/10 09:19:00;;;;;;;97.33;2.90;;;31.60;25.80;;;;;;4971566;28;20572;-73
2023/07/10 09:21:36;;;;;;;96.57;2.63;;;31.80;25.10;;;;;;4972757;28;20457;-73
2023/07/10 09:24:04;;;;;;;96.70;2.73;;;32.20;24.40;;;;;;4972446;28;20421;-73
2023/07/10 09:26:38;;;;;;;96.50;2.50;;;31.70;25.10;;;;;;4971171;28;20977;-73
2023/07/10 09:29:10;;;;;;;96.60;2.80;;;31.80;25.50;;;;;;4972264;28;20433;-73
2023/07/10 09:31:57;;;;;;;96.40;2.53;;;31.30;26.50;;;;;;4972963;28;20502;-73
2023/07/10 09:34:28;;;;;;;96.77;2.53;;;31.00;26.10;;;;;;4972647;28;20504;-73
2023/07/10 09:36:56;;;;;;;96.30;2.60;;;30.30;26.60;;;;;;4972444;28;20814;-73
2023/07/10 09:39:30;;;;;;;96.20;2.70;;;30.30;26.70;;;;;;4972702;28;20599;-73
2023/07/10 09:42:01;;;;;;;96.57;2.53;;;31.00;26.10;;;;;;4972222;28;20454;-73
2023/07/10 09:44:39;;;;;;;96.50;3.00;;;30.80;25.40;;;;;;4972287;28;20437;-76
2023/07/10 09:47:12;;;;;;;95.47;2.50;;;31.40;26.90;;;;;;4972471;28;20465;-73
2023/07/10 09:49:51;;;;;;;96.03;2.57;;;30.00;27.00;;;;;;4972280;28;20449;-74
2023/07/10 09:52:27;;;;;;;95.90;2.30;;;30.30;26.20;;;;;;4974879;28;20496;-74
2023/07/10 09:55:02;;;;;;;95.20;2.13;;;30.20;26.80;;;;;;4975814;28;20641;-73
2023/07/10 09:57:28;;;;;;;95.90;2.60;;;30.30;27.20;;;;;;4976368;28;20483;-73
2023/07/10 09:59:55;;;;;;;96.40;2.77;;;31.00;26.30;;;;;;4975765;28;20438;-74
2023/07/10 10:02:26;;;;;;;95.50;2.50;;;31.00;26.00;;;;;;4975786;28;20206;-75
2023/07/10 10:05:10;;;;;;;95.80;2.67;;;31.60;24.90;;;;;;4974715;28;20834;-74
2023/07/10 10:07:42;;;;;;;97.97;2.20;;;31.40;25.10;;;;;;4975904;28;20468;-74
2023/07/10 10:10:19;;;;;;;95.30;2.30;;;30.70;26.90;;;;;;4975528;28;20429;-74
2023/07/10 10:13:01;;;;;;;95.80;2.67;;;30.50;26.80;;;;;;4975873;28;20901;-73
2023/07/10 10:15:47;;;;;;;95.07;2.10;;;30.80;26.10;;;;;;4975886;28;20460;-73
2023/07/10 10:18:38;;;;;;;95.17;2.33;;;31.70;26.20;;;;;;4975819;28;20425;-74
2023/07/10 10:21:05;;;;;;;95.27;2.20;;;31.20;25.70;;;;;;4975596;28;20449;-74
2023/07/10 10:23:36;;;;;;;96.00;2.60;;;30.70;25.70;;;;;;4975503;28;20413;-73
2023/07/10 10:26:29;;;;;;;95.50;2.70;;;30.60;25.90;;;;;;4975378;28;20417;-74
2023/07/10 10:29:12;;;;;;;96.17;2.50;;;30.60;27.50;;;;;;4975364;28;20976;-74
2023/07/10 10:31:44;;;;;;;96.00;2.53;;;31.60;25.00;;;;;;4975463;28;20418;-74
2023/07/10 10:34:41;;;;;;;100.47;2.30;;;32.00;24.50;;;;;;4975125;28;20504;-74
2023/07/10 10:37:27;;;;;;;94.70;2.10;;;32.20;24.00;;;;;;4973654;28;20911;-74
2023/07/10 10:39:58;;;;;;;96.10;2.50;;;32.00;23.90;;;;;;4975254;28;20445;-73
2023/07/10 10:42:37;;;;;;;95.00;2.40;;;31.10;25.30;;;;;;4975246;28;20457;-73
2023/07/10 10:45:16;;;;;;;95.07;2.30;;;31.40;25.30;;;;;;4974762;28;20410;-74
2023/07/10 10:48:10;;;;;;;95.70;2.60;;;32.00;24.10;;;;;;4975103;28;20429;-73
2023/07/10 10:50:50;;;;;;;94.60;2.10;;;31.50;25.20;;;;;;4973813;28;20441;-73
2023/07/10 10:53:35;;;;;;;94.70;2.37;;;31.80;25.30;;;;;;4974970;28;20444;-74
2023/07/10 10:56:20;;;;;;;95.30;2.40;;;31.20;26.20;;;;;;4974273;28;20410;-75
2023/07/10 10:59:11;;;;;;;95.30;2.57;;;31.30;26.60;;;;;;4974766;28;20402;-74
2023/07/10 11:02:21;;;;;;;96.03;2.70;;;32.10;24.90;;;;;;4972862;28;20869;-74
2023/07/10 11:04:54;;;;;;;95.67;2.60;;;31.20;25.60;;;;;;4971708;28;20418;-76
2023/07/10 11:07:23;;;;;;;95.67;2.50;;;31.70;25.30;;;;;;4960640;28;20437;-74
2023/07/10 11:09:56;;;;;;;95.10;2.53;;;31.80;24.70;;;;;;4960348;28;20457;-74
2023/07/10 11:12:29;;;;;;;94.77;2.30;;;31.40;26.30;;;;;;4973724;28;20429;-73
2023/07/10 11:14:59;;;;;;;95.30;2.47;;;32.10;25.20;;;;;;4971558;28;20816;-74
2023/07/10 11:17:25;;;;;;;105.53;3.00;;;32.50;24.10;;;;;;4971292;28;20434;-74
2023/07/10 11:19:52;;;;;;;94.90;2.20;;;32.50;24.30;;;;;;4973716;28;20471;-74
2023/07/10 11:22:31;;;;;;;95.47;2.37;;;32.10;24.30;;;;;;4973938;28;20480;-74
2023/07/10 11:25:04;;;;;;;95.07;2.47;;;31.80;24.60;;;;;;4969682;28;20836;-74
2023/07/10 11:27:32;;;;;;;95.03;2.40;;;31.70;25.20;;;;;;4971445;28;20426;-73
2023/07/10 11:30:13;;;;;;;95.80;2.50;;;32.00;24.60;;;;;;4971729;28;20514;-74
2023/07/10 11:33:03;;;;;;;96.37;2.40;;;33.20;23.60;;;;;;4971775;28;20404;-73
2023/07/10 11:35:30;;;;;;;94.67;2.37;;;34.10;22.00;;;;;;4972731;28;20936;-73
2023/07/10 11:38:01;;;;;;;94.60;2.27;;;34.10;20.90;;;;;;4972945;28;20410;-73
2023/07/10 11:40:27;;;;;;;94.40;2.10;;;33.70;21.60;;;;;;4971623;28;20465;-72
2023/07/10 11:42:58;;;;;;;94.67;2.30;;;34.20;22.50;;;;;;4970818;28;20444;-72
2023/07/10 11:45:33;;;;;;;94.87;2.50;;;34.60;21.10;;;;;;4971720;28;20187;-72
2023/07/10 11:48:00;;;;;;;95.70;2.63;;;34.40;21.00;;;;;;4973253;28;20428;-72
2023/07/10 11:50:29;;;;;;;94.33;2.20;;;33.90;21.30;;;;;;4972967;28;20448;-72
2023/07/10 11:53:12;;;;;;;95.90;2.10;;;34.60;20.60;;;;;;4971507;28;20430;-73
2023/07/10 11:56:03;;;;;;;94.50;2.53;;;35.10;19.50;;;;;;4966825;28;20416;-73
2023/07/10 11:58:30;;;;;;;94.37;2.37;;;34.90;20.90;;;;;;4971442;28;20505;-73
2023/07/10 12:01:18;;;;;;;93.97;2.33;;;33.80;20.70;;;;;;4964485;28;20493;-74
2023/07/10 12:03:44;;;;;;;93.67;2.10;;;33.90;20.70;;;;;;4971638;28;20417;-73
2023/07/10 12:06:17;;;;;;;93.70;2.30;;;34.60;19.80;;;;;;4971415;28;20776;-73
2023/07/10 12:08:51;;;;;;;93.90;2.13;;;35.40;19.30;;;;;;4973042;28;20414;-73
2023/07/10 12:11:27;;;;;;;93.80;2.20;;;36.10;16.40;;;;;;4972812;28;20932;-73
2023/07/10 12:13:53;;;;;;;95.03;2.77;;;35.40;17.00;;;;;;4972705;28;20815;-73
2023/07/10 12:16:18;;;;;;;93.77;2.40;;;35.20;16.70;;;;;;4972848;28;20992;-73
2023/07/10 12:18:45;;;;;;;93.20;2.10;;;34.20;18.80;;;;;;4971919;28;20201;-74
2023/07/10 12:21:22;;;;;;;93.27;2.10;;;34.20;17.70;;;;;;4971619;28;20690;-72
2023/07/10 12:24:03;;;;;;;92.67;1.90;;;34.00;19.20;;;;;;4971752;28;20418;-73
2023/07/10 12:26:29;;;;;;;94.00;2.10;;;35.90;15.80;;;;;;4984219;28;20823;-73
2023/07/10 12:28:55;;;;;;;92.60;1.97;;;36.00;15.20;;;;;;4972060;28;20525;-73
2023/07/10 12:31:21;;;;;;;92.47;2.20;;;36.20;14.70;;;;;;4971357;28;20197;-74
2023/07/10 12:33:51;;;;;;;92.73;2.27;;;35.90;15.20;;;;;;4971682;28;20429;-74
2023/07/10 12:36:29;;;;;;;93.47;2.20;;;35.00;15.60;;;;;;4971635;28;20716;-73
2023/07/10 12:38:58;;;;;;;91.40;1.90;;;35.20;15.50;;;;;;4967749;28;20488;-74
2023/07/10 12:41:24;;;;;;;91.57;1.93;;;35.10;14.90;;;;;;4971963;28;20454;-73
2023/07/10 12:43:56;;;;;;;91.10;2.00;;;36.00;13.40;;;;;;4972512;28;20501;-73
2023/07/10 12:46:28;;;;;;;90.90;1.80;;;36.70;13.00;;;;;;4971748;28;20465;-73
2023/07/10 12:49:13;;;;;;;90.97;2.00;;;36.80;12.60;;;;;;4971741;28;20433;-74
2023/07/10 12:51:42;;;;;;;90.87;1.90;;;35.10;14.30;;;;;;4972144;28;20538;-73
2023/07/10 12:54:42;;;;;;;90.27;1.90;;;34.60;15.10;;;;;;4972118;28;20426;-73
2023/07/10 12:57:20;;;;;;;90.17;1.83;;;35.00;14.20;;;;;;4969789;28;20941;-74
2023/07/10 12:59:47;;;;;;;90.43;1.80;;;35.40;13.20;;;;;;4969255;28;20433;-74